sensor_id;sensor_type;location;lat;lon;timestamp;temperature;humidity
82243;DHT22;71844;51.528;4.442;2023-12-29T00:02:15;10.50;74.90
82243;DHT22;71844;51.528;4.442;2023-12-29T00:04:45;10.40;75.30
82243;DHT22;71844;51.528;4.442;2023-12-29T00:07:12;10.30;75.40
82243;DHT22;71844;51.528;4.442;2023-12-29T00:09:39;10.30;75.70
82243;DHT22;71844;51.528;4.442;2023-12-29T00:12:08;10.20;76.00
82243;DHT22;71844;51.528;4.442;2023-12-29T00:14:41;10.10;76.40
82243;DHT22;71844;51.528;4.442;2023-12-29T00:17:09;10.00;77.40
82243;DHT22;71844;51.528;4.442;2023-12-29T00:19:36;10.00;77.30
82243;DHT22;71844;51.528;4.442;2023-12-29T00:22:04;10.00;77.90
82243;DHT22;71844;51.528;4.442;2023-12-29T00:24:31;9.90;77.90
82243;DHT22;71844;51.528;4.442;2023-12-29T00:26:59;9.90;78.10
82243;DHT22;71844;51.528;4.442;2023-12-29T00:29:26;9.90;78.10
82243;DHT22;71844;51.528;4.442;2023-12-29T00:31:59;9.90;78.30
82243;DHT22;71844;51.528;4.442;2023-12-29T00:34:27;9.90;78.40
82243;DHT22;71844;51.528;4.442;2023-12-29T00:39:39;10.00;78.20
82243;DHT22;71844;51.528;4.442;2023-12-29T00:42:07;10.00;78.40
82243;DHT22;71844;51.528;4.442;2023-12-29T00:44:34;10.00;78.90
82243;DHT22;71844;51.528;4.442;2023-12-29T00:47:01;10.00;79.10
82243;DHT22;71844;51.528;4.442;2023-12-29T00:49:28;9.90;79.30
82243;DHT22;71844;51.528;4.442;2023-12-29T00:51:55;9.90;79.10
82243;DHT22;71844;51.528;4.442;2023-12-29T00:54:23;9.80;80.00
82243;DHT22;71844;51.528;4.442;2023-12-29T00:56:53;9.80;80.40
82243;DHT22;71844;51.528;4.442;2023-12-29T00:59:20;9.60;81.00
82243;DHT22;71844;51.528;4.442;2023-12-29T01:01:47;9.60;81.80
82243;DHT22;71844;51.528;4.442;2023-12-29T01:04:14;9.50;82.70
82243;DHT22;71844;51.528;4.442;2023-12-29T01:06:41;9.40;83.00
82243;DHT22;71844;51.528;4.442;2023-12-29T01:09:08;9.40;83.00
82243;DHT22;71844;51.528;4.442;2023-12-29T01:11:37;9.30;83.70
82243;DHT22;71844;51.528;4.442;2023-12-29T01:14:03;9.30;84.30
82243;DHT22;71844;51.528;4.442;2023-12-29T01:16:30;9.30;84.40
82243;DHT22;71844;51.528;4.442;2023-12-29T01:18:57;9.30;84.60
82243;DHT22;71844;51.528;4.442;2023-12-29T01:21:24;9.30;84.40
82243;DHT22;71844;51.528;4.442;2023-12-29T01:23:54;9.30;84.70
82243;DHT22;71844;51.528;4.442;2023-12-29T01:26:21;9.30;84.60
82243;DHT22;71844;51.528;4.442;2023-12-29T01:28:48;9.30;84.60
82243;DHT22;71844;51.528;4.442;2023-12-29T01:31:17;9.30;84.90
82243;DHT22;71844;51.528;4.442;2023-12-29T01:33:45;9.30;84.80
82243;DHT22;71844;51.528;4.442;2023-12-29T01:36:18;9.40;84.80
82243;DHT22;71844;51.528;4.442;2023-12-29T01:38:51;9.40;84.70
82243;DHT22;71844;51.528;4.442;2023-12-29T01:41:21;9.40;84.70
82243;DHT22;71844;51.528;4.442;2023-12-29T01:46:31;9.50;85.00
82243;DHT22;71844;51.528;4.442;2023-12-29T01:51:37;9.50;84.50
82243;DHT22;71844;51.528;4.442;2023-12-29T01:54:04;9.50;84.40
82243;DHT22;71844;51.528;4.442;2023-12-29T01:56:32;9.50;84.30
82243;DHT22;71844;51.528;4.442;2023-12-29T01:58:59;9.50;84.10
82243;DHT22;71844;51.528;4.442;2023-12-29T02:04:24;9.40;83.90
82243;DHT22;71844;51.528;4.442;2023-12-29T02:06:51;9.40;83.90
82243;DHT22;71844;51.528;4.442;2023-12-29T02:09:18;9.40;84.10
82243;DHT22;71844;51.528;4.442;2023-12-29T02:11:46;9.40;83.80
82243;DHT22;71844;51.528;4.442;2023-12-29T02:14:15;9.40;83.70
82243;DHT22;71844;51.528;4.442;2023-12-29T02:17:01;9.40;83.80
82243;DHT22;71844;51.528;4.442;2023-12-29T02:22:08;9.50;83.60
82243;DHT22;71844;51.528;4.442;2023-12-29T02:24:38;9.50;83.70
82243;DHT22;71844;51.528;4.442;2023-12-29T02:29:33;9.50;83.70
82243;DHT22;71844;51.528;4.442;2023-12-29T02:32:00;9.50;83.60
82243;DHT22;71844;51.528;4.442;2023-12-29T02:34:32;9.50;83.60
82243;DHT22;71844;51.528;4.442;2023-12-29T02:37:00;9.60;83.70
82243;DHT22;71844;51.528;4.442;2023-12-29T02:39:28;9.60;83.60
82243;DHT22;71844;51.528;4.442;2023-12-29T02:41:55;9.60;83.40
82243;DHT22;71844;51.528;4.442;2023-12-29T02:44:21;9.60;83.20
82243;DHT22;71844;51.528;4.442;2023-12-29T02:46:48;9.70;83.30
82243;DHT22;71844;51.528;4.442;2023-12-29T02:49:15;9.70;83.10
82243;DHT22;71844;51.528;4.442;2023-12-29T02:51:42;9.70;83.10
82243;DHT22;71844;51.528;4.442;2023-12-29T02:54:10;9.70;83.00
82243;DHT22;71844;51.528;4.442;2023-12-29T02:56:37;9.70;83.10
82243;DHT22;71844;51.528;4.442;2023-12-29T02:59:04;9.70;83.00
82243;DHT22;71844;51.528;4.442;2023-12-29T03:01:31;9.70;82.90
82243;DHT22;71844;51.528;4.442;2023-12-29T03:03:58;9.70;82.80
82243;DHT22;71844;51.528;4.442;2023-12-29T03:06:25;9.70;82.70
82243;DHT22;71844;51.528;4.442;2023-12-29T03:08:52;9.80;82.80
82243;DHT22;71844;51.528;4.442;2023-12-29T03:11:19;9.80;82.50
82243;DHT22;71844;51.528;4.442;2023-12-29T03:13:46;9.80;82.50
82243;DHT22;71844;51.528;4.442;2023-12-29T03:16:12;9.80;82.30
82243;DHT22;71844;51.528;4.442;2023-12-29T03:18:39;9.80;82.10
82243;DHT22;71844;51.528;4.442;2023-12-29T03:21:09;9.80;81.90
82243;DHT22;71844;51.528;4.442;2023-12-29T03:23:36;9.80;82.00
82243;DHT22;71844;51.528;4.442;2023-12-29T03:26:03;9.80;81.90
82243;DHT22;71844;51.528;4.442;2023-12-29T03:28:29;9.80;81.90
82243;DHT22;71844;51.528;4.442;2023-12-29T03:30:56;9.80;82.00
82243;DHT22;71844;51.528;4.442;2023-12-29T03:33:23;9.80;81.90
82243;DHT22;71844;51.528;4.442;2023-12-29T03:35:50;9.70;81.90
82243;DHT22;71844;51.528;4.442;2023-12-29T03:38:17;9.70;81.90
82243;DHT22;71844;51.528;4.442;2023-12-29T03:40:44;9.70;82.10
82243;DHT22;71844;51.528;4.442;2023-12-29T03:43:11;9.70;82.10
82243;DHT22;71844;51.528;4.442;2023-12-29T03:45:38;9.70;82.20
82243;DHT22;71844;51.528;4.442;2023-12-29T03:48:05;9.70;82.30
82243;DHT22;71844;51.528;4.442;2023-12-29T03:50:33;9.80;82.20
82243;DHT22;71844;51.528;4.442;2023-12-29T03:52:59;9.70;82.30
82243;DHT22;71844;51.528;4.442;2023-12-29T03:55:26;9.70;82.30
82243;DHT22;71844;51.528;4.442;2023-12-29T03:57:53;9.70;82.30
82243;DHT22;71844;51.528;4.442;2023-12-29T04:00:20;9.80;82.20
82243;DHT22;71844;51.528;4.442;2023-12-29T04:02:47;9.80;82.10
82243;DHT22;71844;51.528;4.442;2023-12-29T04:05:14;9.80;82.20
82243;DHT22;71844;51.528;4.442;2023-12-29T04:07:41;9.80;82.10
82243;DHT22;71844;51.528;4.442;2023-12-29T04:10:08;9.80;82.10
82243;DHT22;71844;51.528;4.442;2023-12-29T04:12:35;9.80;82.00
82243;DHT22;71844;51.528;4.442;2023-12-29T04:15:06;9.80;82.00
82243;DHT22;71844;51.528;4.442;2023-12-29T04:17:33;9.80;82.10
82243;DHT22;71844;51.528;4.442;2023-12-29T04:20:00;9.80;82.00
82243;DHT22;71844;51.528;4.442;2023-12-29T04:22:30;9.80;82.00
82243;DHT22;71844;51.528;4.442;2023-12-29T04:24:56;9.80;81.90
82243;DHT22;71844;51.528;4.442;2023-12-29T04:27:23;9.90;81.90
82243;DHT22;71844;51.528;4.442;2023-12-29T04:29:50;9.90;81.90
82243;DHT22;71844;51.528;4.442;2023-12-29T04:32:17;9.90;81.80
82243;DHT22;71844;51.528;4.442;2023-12-29T04:34:44;9.90;81.70
82243;DHT22;71844;51.528;4.442;2023-12-29T04:37:11;9.90;81.70
82243;DHT22;71844;51.528;4.442;2023-12-29T04:39:38;9.80;81.70
82243;DHT22;71844;51.528;4.442;2023-12-29T04:42:05;9.80;81.80
82243;DHT22;71844;51.528;4.442;2023-12-29T04:44:33;9.90;81.80
82243;DHT22;71844;51.528;4.442;2023-12-29T04:47:00;9.80;81.80
82243;DHT22;71844;51.528;4.442;2023-12-29T04:49:27;9.80;81.70
82243;DHT22;71844;51.528;4.442;2023-12-29T04:51:54;9.80;81.80
82243;DHT22;71844;51.528;4.442;2023-12-29T04:54:22;9.80;81.70
82243;DHT22;71844;51.528;4.442;2023-12-29T04:56:49;9.80;81.70
82243;DHT22;71844;51.528;4.442;2023-12-29T04:59:17;9.80;81.70
82243;DHT22;71844;51.528;4.442;2023-12-29T05:01:44;9.80;81.70
82243;DHT22;71844;51.528;4.442;2023-12-29T05:04:11;9.80;81.80
82243;DHT22;71844;51.528;4.442;2023-12-29T05:06:38;9.80;82.00
82243;DHT22;71844;51.528;4.442;2023-12-29T05:09:05;9.70;81.90
82243;DHT22;71844;51.528;4.442;2023-12-29T05:11:32;9.70;82.00
82243;DHT22;71844;51.528;4.442;2023-12-29T05:13:59;9.70;82.00
82243;DHT22;71844;51.528;4.442;2023-12-29T05:16:26;9.70;82.00
82243;DHT22;71844;51.528;4.442;2023-12-29T05:18:53;9.70;82.10
82243;DHT22;71844;51.528;4.442;2023-12-29T05:21:19;9.70;82.20
82243;DHT22;71844;51.528;4.442;2023-12-29T05:23:47;9.70;82.10
82243;DHT22;71844;51.528;4.442;2023-12-29T05:26:15;9.70;82.20
82243;DHT22;71844;51.528;4.442;2023-12-29T05:28:42;9.70;82.20
82243;DHT22;71844;51.528;4.442;2023-12-29T05:31:09;9.80;82.20
82243;DHT22;71844;51.528;4.442;2023-12-29T05:33:36;9.80;82.20
82243;DHT22;71844;51.528;4.442;2023-12-29T05:36:07;9.80;82.30
82243;DHT22;71844;51.528;4.442;2023-12-29T05:38:37;9.70;82.70
82243;DHT22;71844;51.528;4.442;2023-12-29T05:41:04;9.60;82.80
82243;DHT22;71844;51.528;4.442;2023-12-29T05:43:33;9.50;83.30
82243;DHT22;71844;51.528;4.442;2023-12-29T05:46:01;9.40;84.20
82243;DHT22;71844;51.528;4.442;2023-12-29T05:48:32;9.40;83.80
82243;DHT22;71844;51.528;4.442;2023-12-29T05:50:59;9.30;84.60
82243;DHT22;71844;51.528;4.442;2023-12-29T05:53:26;9.20;85.50
82243;DHT22;71844;51.528;4.442;2023-12-29T05:55:53;9.20;85.80
82243;DHT22;71844;51.528;4.442;2023-12-29T05:58:19;9.20;85.60
82243;DHT22;71844;51.528;4.442;2023-12-29T06:00:46;9.20;85.50
82243;DHT22;71844;51.528;4.442;2023-12-29T06:03:16;9.20;85.40
82243;DHT22;71844;51.528;4.442;2023-12-29T06:05:44;9.20;85.50
82243;DHT22;71844;51.528;4.442;2023-12-29T06:08:13;9.20;85.90
82243;DHT22;71844;51.528;4.442;2023-12-29T06:10:39;9.20;85.80
82243;DHT22;71844;51.528;4.442;2023-12-29T06:13:06;9.20;85.90
82243;DHT22;71844;51.528;4.442;2023-12-29T06:15:33;9.20;85.90
82243;DHT22;71844;51.528;4.442;2023-12-29T06:18:00;9.20;86.40
82243;DHT22;71844;51.528;4.442;2023-12-29T06:20:27;9.20;85.90
82243;DHT22;71844;51.528;4.442;2023-12-29T06:22:55;9.20;86.20
82243;DHT22;71844;51.528;4.442;2023-12-29T06:25:22;9.20;85.90
82243;DHT22;71844;51.528;4.442;2023-12-29T06:27:49;9.20;86.30
82243;DHT22;71844;51.528;4.442;2023-12-29T06:30:16;9.20;86.40
82243;DHT22;71844;51.528;4.442;2023-12-29T06:32:43;9.30;86.50
82243;DHT22;71844;51.528;4.442;2023-12-29T06:35:10;9.30;86.50
82243;DHT22;71844;51.528;4.442;2023-12-29T06:37:40;9.30;86.40
82243;DHT22;71844;51.528;4.442;2023-12-29T06:40:08;9.30;86.50
82243;DHT22;71844;51.528;4.442;2023-12-29T06:42:35;9.30;86.60
82243;DHT22;71844;51.528;4.442;2023-12-29T06:45:03;9.30;86.60
82243;DHT22;71844;51.528;4.442;2023-12-29T06:47:30;9.40;86.60
82243;DHT22;71844;51.528;4.442;2023-12-29T06:49:57;9.30;86.70
82243;DHT22;71844;51.528;4.442;2023-12-29T06:52:24;9.30;86.70
82243;DHT22;71844;51.528;4.442;2023-12-29T06:54:52;9.40;86.90
82243;DHT22;71844;51.528;4.442;2023-12-29T06:57:18;9.40;86.90
82243;DHT22;71844;51.528;4.442;2023-12-29T06:59:45;9.30;87.30
82243;DHT22;71844;51.528;4.442;2023-12-29T07:02:12;9.40;87.30
82243;DHT22;71844;51.528;4.442;2023-12-29T07:04:42;9.40;87.40
82243;DHT22;71844;51.528;4.442;2023-12-29T07:07:09;9.40;87.20
82243;DHT22;71844;51.528;4.442;2023-12-29T07:09:40;9.50;87.20
82243;DHT22;71844;51.528;4.442;2023-12-29T07:12:07;9.50;87.10
82243;DHT22;71844;51.528;4.442;2023-12-29T07:14:34;9.50;87.10
82243;DHT22;71844;51.528;4.442;2023-12-29T07:17:03;9.50;87.00
82243;DHT22;71844;51.528;4.442;2023-12-29T07:21:58;9.60;86.80
82243;DHT22;71844;51.528;4.442;2023-12-29T07:24:24;9.60;86.80
82243;DHT22;71844;51.528;4.442;2023-12-29T07:26:51;9.70;86.70
82243;DHT22;71844;51.528;4.442;2023-12-29T07:29:18;9.70;86.50
82243;DHT22;71844;51.528;4.442;2023-12-29T07:31:46;9.70;86.40
82243;DHT22;71844;51.528;4.442;2023-12-29T07:34:13;9.70;86.40
82243;DHT22;71844;51.528;4.442;2023-12-29T07:36:40;9.70;86.20
82243;DHT22;71844;51.528;4.442;2023-12-29T07:39:07;9.70;86.10
82243;DHT22;71844;51.528;4.442;2023-12-29T07:41:39;9.70;86.10
82243;DHT22;71844;51.528;4.442;2023-12-29T07:44:09;9.70;86.10
82243;DHT22;71844;51.528;4.442;2023-12-29T07:46:37;9.70;86.20
82243;DHT22;71844;51.528;4.442;2023-12-29T07:49:05;9.70;86.10
82243;DHT22;71844;51.528;4.442;2023-12-29T07:51:32;9.70;86.10
82243;DHT22;71844;51.528;4.442;2023-12-29T07:53:59;9.70;86.10
82243;DHT22;71844;51.528;4.442;2023-12-29T07:56:26;9.70;86.10
82243;DHT22;71844;51.528;4.442;2023-12-29T07:58:53;9.70;86.10
82243;DHT22;71844;51.528;4.442;2023-12-29T08:01:19;9.70;86.10
82243;DHT22;71844;51.528;4.442;2023-12-29T08:03:46;9.70;86.10
82243;DHT22;71844;51.528;4.442;2023-12-29T08:06:14;9.70;86.10
82243;DHT22;71844;51.528;4.442;2023-12-29T08:08:44;9.70;86.00
82243;DHT22;71844;51.528;4.442;2023-12-29T08:11:15;9.70;86.00
82243;DHT22;71844;51.528;4.442;2023-12-29T08:13:44;9.70;85.90
82243;DHT22;71844;51.528;4.442;2023-12-29T08:16:17;9.80;85.80
82243;DHT22;71844;51.528;4.442;2023-12-29T08:18:46;9.80;85.90
82243;DHT22;71844;51.528;4.442;2023-12-29T08:21:20;9.70;85.80
82243;DHT22;71844;51.528;4.442;2023-12-29T08:23:47;9.80;85.70
82243;DHT22;71844;51.528;4.442;2023-12-29T08:26:15;9.80;85.60
82243;DHT22;71844;51.528;4.442;2023-12-29T08:28:42;9.80;85.50
82243;DHT22;71844;51.528;4.442;2023-12-29T08:31:09;9.80;85.40
82243;DHT22;71844;51.528;4.442;2023-12-29T08:33:36;9.80;85.50
82243;DHT22;71844;51.528;4.442;2023-12-29T08:36:04;9.80;85.50
82243;DHT22;71844;51.528;4.442;2023-12-29T08:38:31;9.80;85.40
82243;DHT22;71844;51.528;4.442;2023-12-29T08:40:59;9.90;85.30
82243;DHT22;71844;51.528;4.442;2023-12-29T08:43:26;9.90;85.30
82243;DHT22;71844;51.528;4.442;2023-12-29T08:45:53;9.90;85.20
82243;DHT22;71844;51.528;4.442;2023-12-29T08:48:21;9.90;85.10
82243;DHT22;71844;51.528;4.442;2023-12-29T08:50:49;9.90;85.10
82243;DHT22;71844;51.528;4.442;2023-12-29T08:53:16;9.90;85.00
82243;DHT22;71844;51.528;4.442;2023-12-29T08:55:44;9.90;85.10
82243;DHT22;71844;51.528;4.442;2023-12-29T08:58:12;10.00;85.10
82243;DHT22;71844;51.528;4.442;2023-12-29T09:00:39;10.00;85.10
82243;DHT22;71844;51.528;4.442;2023-12-29T09:03:06;10.00;85.30
82243;DHT22;71844;51.528;4.442;2023-12-29T09:05:33;10.00;85.30
82243;DHT22;71844;51.528;4.442;2023-12-29T09:08:06;10.10;85.40
82243;DHT22;71844;51.528;4.442;2023-12-29T09:10:33;10.10;85.30
82243;DHT22;71844;51.528;4.442;2023-12-29T09:13:00;10.10;85.40
82243;DHT22;71844;51.528;4.442;2023-12-29T09:15:27;10.10;85.30
82243;DHT22;71844;51.528;4.442;2023-12-29T09:17:54;10.20;85.20
82243;DHT22;71844;51.528;4.442;2023-12-29T09:20:21;10.20;85.20
82243;DHT22;71844;51.528;4.442;2023-12-29T09:22:48;10.20;85.00
82243;DHT22;71844;51.528;4.442;2023-12-29T09:25:14;10.20;84.90
82243;DHT22;71844;51.528;4.442;2023-12-29T09:27:42;10.20;84.60
82243;DHT22;71844;51.528;4.442;2023-12-29T09:30:10;10.20;84.80
82243;DHT22;71844;51.528;4.442;2023-12-29T09:32:37;10.20;84.60
82243;DHT22;71844;51.528;4.442;2023-12-29T09:35:04;10.20;84.20
82243;DHT22;71844;51.528;4.442;2023-12-29T09:37:31;10.20;84.10
82243;DHT22;71844;51.528;4.442;2023-12-29T09:39:58;10.20;83.60
82243;DHT22;71844;51.528;4.442;2023-12-29T09:42:28;10.30;83.90
82243;DHT22;71844;51.528;4.442;2023-12-29T09:44:55;10.30;83.80
82243;DHT22;71844;51.528;4.442;2023-12-29T09:47:23;10.30;83.80
82243;DHT22;71844;51.528;4.442;2023-12-29T09:49:54;10.30;83.70
82243;DHT22;71844;51.528;4.442;2023-12-29T09:52:22;10.30;83.50
82243;DHT22;71844;51.528;4.442;2023-12-29T09:54:52;10.30;83.60
82243;DHT22;71844;51.528;4.442;2023-12-29T09:57:20;10.30;83.50
82243;DHT22;71844;51.528;4.442;2023-12-29T09:59:49;10.30;83.00
82243;DHT22;71844;51.528;4.442;2023-12-29T10:02:20;10.40;83.10
82243;DHT22;71844;51.528;4.442;2023-12-29T10:04:49;10.40;82.50
82243;DHT22;71844;51.528;4.442;2023-12-29T10:07:23;10.50;82.70
82243;DHT22;71844;51.528;4.442;2023-12-29T10:09:54;10.60;82.40
82243;DHT22;71844;51.528;4.442;2023-12-29T10:12:22;10.60;82.20
82243;DHT22;71844;51.528;4.442;2023-12-29T10:21:00;10.80;81.70
82243;DHT22;71844;51.528;4.442;2023-12-29T10:23:42;10.80;81.50
82243;DHT22;71844;51.528;4.442;2023-12-29T10:26:11;10.80;81.40
82243;DHT22;71844;51.528;4.442;2023-12-29T10:28:38;10.90;81.70
82243;DHT22;71844;51.528;4.442;2023-12-29T10:31:05;10.90;81.60
82243;DHT22;71844;51.528;4.442;2023-12-29T10:33:32;10.90;81.40
82243;DHT22;71844;51.528;4.442;2023-12-29T10:36:01;10.90;81.50
82243;DHT22;71844;51.528;4.442;2023-12-29T10:38:34;10.90;81.30
82243;DHT22;71844;51.528;4.442;2023-12-29T10:41:14;10.90;81.30
82243;DHT22;71844;51.528;4.442;2023-12-29T10:43:42;10.80;81.40
82243;DHT22;71844;51.528;4.442;2023-12-29T10:46:11;10.70;81.50
82243;DHT22;71844;51.528;4.442;2023-12-29T10:48:39;10.70;81.50
82243;DHT22;71844;51.528;4.442;2023-12-29T10:51:06;10.70;81.60
82243;DHT22;71844;51.528;4.442;2023-12-29T10:53:34;10.70;81.70
82243;DHT22;71844;51.528;4.442;2023-12-29T10:56:17;10.80;81.70
82243;DHT22;71844;51.528;4.442;2023-12-29T10:59:06;10.80;81.60
82243;DHT22;71844;51.528;4.442;2023-12-29T11:01:35;10.80;81.60
82243;DHT22;71844;51.528;4.442;2023-12-29T11:04:04;10.80;81.70
82243;DHT22;71844;51.528;4.442;2023-12-29T11:06:41;10.70;81.80
82243;DHT22;71844;51.528;4.442;2023-12-29T11:09:10;10.80;82.00
82243;DHT22;71844;51.528;4.442;2023-12-29T11:11:37;10.80;82.10
82243;DHT22;71844;51.528;4.442;2023-12-29T11:14:05;10.80;82.30
82243;DHT22;71844;51.528;4.442;2023-12-29T11:16:31;10.90;82.30
82243;DHT22;71844;51.528;4.442;2023-12-29T11:18:58;10.90;82.20
82243;DHT22;71844;51.528;4.442;2023-12-29T11:21:27;10.90;82.20
82243;DHT22;71844;51.528;4.442;2023-12-29T11:23:57;10.90;82.20
82243;DHT22;71844;51.528;4.442;2023-12-29T11:26:25;11.00;82.30
82243;DHT22;71844;51.528;4.442;2023-12-29T11:28:54;10.90;82.30
82243;DHT22;71844;51.528;4.442;2023-12-29T11:31:21;11.00;82.40
82243;DHT22;71844;51.528;4.442;2023-12-29T11:37:07;10.90;82.60
82243;DHT22;71844;51.528;4.442;2023-12-29T11:39:42;10.90;82.80
82243;DHT22;71844;51.528;4.442;2023-12-29T11:42:27;10.90;82.80
82243;DHT22;71844;51.528;4.442;2023-12-29T11:44:57;11.00;82.80
82243;DHT22;71844;51.528;4.442;2023-12-29T11:47:37;11.00;82.90
82243;DHT22;71844;51.528;4.442;2023-12-29T11:50:05;11.10;82.80
82243;DHT22;71844;51.528;4.442;2023-12-29T11:52:36;11.00;82.60
82243;DHT22;71844;51.528;4.442;2023-12-29T11:57:36;11.00;82.60
82243;DHT22;71844;51.528;4.442;2023-12-29T12:00:03;11.00;82.70
82243;DHT22;71844;51.528;4.442;2023-12-29T12:02:32;11.00;82.70
82243;DHT22;71844;51.528;4.442;2023-12-29T12:04:59;11.00;82.80
82243;DHT22;71844;51.528;4.442;2023-12-29T12:12:49;10.90;83.20
82243;DHT22;71844;51.528;4.442;2023-12-29T12:17:58;10.80;83.20
82243;DHT22;71844;51.528;4.442;2023-12-29T12:20:25;10.80;83.50
82243;DHT22;71844;51.528;4.442;2023-12-29T12:23:18;10.80;83.50
82243;DHT22;71844;51.528;4.442;2023-12-29T12:25:46;10.70;83.80
82243;DHT22;71844;51.528;4.442;2023-12-29T12:28:15;10.80;83.70
82243;DHT22;71844;51.528;4.442;2023-12-29T12:30:42;10.80;83.90
82243;DHT22;71844;51.528;4.442;2023-12-29T12:33:12;10.80;84.10
82243;DHT22;71844;51.528;4.442;2023-12-29T12:35:41;10.80;84.10
82243;DHT22;71844;51.528;4.442;2023-12-29T12:38:15;10.80;84.10
82243;DHT22;71844;51.528;4.442;2023-12-29T12:40:47;10.80;84.20
82243;DHT22;71844;51.528;4.442;2023-12-29T12:43:14;10.80;84.40
82243;DHT22;71844;51.528;4.442;2023-12-29T12:45:54;10.90;84.40
82243;DHT22;71844;51.528;4.442;2023-12-29T12:48:43;10.90;84.70
82243;DHT22;71844;51.528;4.442;2023-12-29T12:51:11;10.80;84.80
82243;DHT22;71844;51.528;4.442;2023-12-29T12:53:40;10.80;85.10
82243;DHT22;71844;51.528;4.442;2023-12-29T12:56:08;10.70;84.80
82243;DHT22;71844;51.528;4.442;2023-12-29T12:58:35;10.60;85.20
82243;DHT22;71844;51.528;4.442;2023-12-29T13:01:02;10.60;85.20
82243;DHT22;71844;51.528;4.442;2023-12-29T13:03:30;10.50;85.50
82243;DHT22;71844;51.528;4.442;2023-12-29T13:05:59;10.40;85.90
82243;DHT22;71844;51.528;4.442;2023-12-29T13:08:27;10.40;85.80
82243;DHT22;71844;51.528;4.442;2023-12-29T13:11:06;10.40;86.10
82243;DHT22;71844;51.528;4.442;2023-12-29T13:13:38;10.30;87.30
82243;DHT22;71844;51.528;4.442;2023-12-29T13:16:05;10.30;87.40
82243;DHT22;71844;51.528;4.442;2023-12-29T13:18:32;10.30;87.90
82243;DHT22;71844;51.528;4.442;2023-12-29T13:23:47;10.40;88.00
82243;DHT22;71844;51.528;4.442;2023-12-29T13:26:14;10.50;87.90
82243;DHT22;71844;51.528;4.442;2023-12-29T13:28:45;10.50;88.10
82243;DHT22;71844;51.528;4.442;2023-12-29T13:31:13;10.50;87.50
82243;DHT22;71844;51.528;4.442;2023-12-29T13:42:00;10.50;87.40
82243;DHT22;71844;51.528;4.442;2023-12-29T13:44:29;10.50;87.30
82243;DHT22;71844;51.528;4.442;2023-12-29T13:46:57;10.50;87.20
82243;DHT22;71844;51.528;4.442;2023-12-29T13:49:24;10.50;87.20
82243;DHT22;71844;51.528;4.442;2023-12-29T13:51:51;10.60;87.10
82243;DHT22;71844;51.528;4.442;2023-12-29T13:54:19;10.60;87.10
82243;DHT22;71844;51.528;4.442;2023-12-29T13:56:52;10.60;87.10
82243;DHT22;71844;51.528;4.442;2023-12-29T13:59:32;10.60;87.00
82243;DHT22;71844;51.528;4.442;2023-12-29T14:02:28;10.60;87.00
82243;DHT22;71844;51.528;4.442;2023-12-29T14:04:50;10.50;87.00
82243;DHT22;71844;51.528;4.442;2023-12-29T14:07:19;10.50;87.10
82243;DHT22;71844;51.528;4.442;2023-12-29T14:09:47;10.50;87.00
82243;DHT22;71844;51.528;4.442;2023-12-29T14:12:26;10.50;87.00
82243;DHT22;71844;51.528;4.442;2023-12-29T14:14:53;10.50;87.00
82243;DHT22;71844;51.528;4.442;2023-12-29T14:17:23;10.50;87.00
82243;DHT22;71844;51.528;4.442;2023-12-29T14:19:50;10.50;87.00
82243;DHT22;71844;51.528;4.442;2023-12-29T14:22:23;10.50;86.90
82243;DHT22;71844;51.528;4.442;2023-12-29T14:25:03;10.50;86.90
82243;DHT22;71844;51.528;4.442;2023-12-29T14:27:31;10.50;86.90
82243;DHT22;71844;51.528;4.442;2023-12-29T14:29:58;10.50;87.00
82243;DHT22;71844;51.528;4.442;2023-12-29T14:32:28;10.40;87.00
82243;DHT22;71844;51.528;4.442;2023-12-29T14:34:56;10.40;87.00
82243;DHT22;71844;51.528;4.442;2023-12-29T14:37:23;10.40;87.00
82243;DHT22;71844;51.528;4.442;2023-12-29T14:39:51;10.40;87.00
82243;DHT22;71844;51.528;4.442;2023-12-29T14:42:18;10.40;86.90
82243;DHT22;71844;51.528;4.442;2023-12-29T14:44:48;10.40;86.80
82243;DHT22;71844;51.528;4.442;2023-12-29T14:47:16;10.30;86.60
82243;DHT22;71844;51.528;4.442;2023-12-29T14:49:43;10.30;86.60
82243;DHT22;71844;51.528;4.442;2023-12-29T14:52:10;10.20;86.50
82243;DHT22;71844;51.528;4.442;2023-12-29T14:54:38;10.20;86.40
82243;DHT22;71844;51.528;4.442;2023-12-29T14:57:06;10.10;86.50
82243;DHT22;71844;51.528;4.442;2023-12-29T14:59:41;10.10;86.60
82243;DHT22;71844;51.528;4.442;2023-12-29T15:02:08;10.10;86.50
82243;DHT22;71844;51.528;4.442;2023-12-29T15:04:35;10.10;86.50
82243;DHT22;71844;51.528;4.442;2023-12-29T15:07:03;10.10;86.70
82243;DHT22;71844;51.528;4.442;2023-12-29T15:09:30;10.10;86.90
82243;DHT22;71844;51.528;4.442;2023-12-29T15:11:57;10.10;87.00
82243;DHT22;71844;51.528;4.442;2023-12-29T15:14:24;10.10;87.00
82243;DHT22;71844;51.528;4.442;2023-12-29T15:16:51;10.10;87.10
82243;DHT22;71844;51.528;4.442;2023-12-29T15:19:17;10.10;87.10
82243;DHT22;71844;51.528;4.442;2023-12-29T15:21:44;10.10;87.20
82243;DHT22;71844;51.528;4.442;2023-12-29T15:24:11;10.10;87.20
82243;DHT22;71844;51.528;4.442;2023-12-29T15:26:38;10.10;87.30
82243;DHT22;71844;51.528;4.442;2023-12-29T15:29:05;10.10;87.20
82243;DHT22;71844;51.528;4.442;2023-12-29T15:31:33;10.10;87.10
82243;DHT22;71844;51.528;4.442;2023-12-29T15:34:00;10.10;87.40
82243;DHT22;71844;51.528;4.442;2023-12-29T15:36:27;10.10;87.20
82243;DHT22;71844;51.528;4.442;2023-12-29T15:38:54;10.10;87.30
82243;DHT22;71844;51.528;4.442;2023-12-29T15:41:20;10.10;87.00
82243;DHT22;71844;51.528;4.442;2023-12-29T15:43:47;10.10;87.10
82243;DHT22;71844;51.528;4.442;2023-12-29T15:46:17;10.10;87.00
82243;DHT22;71844;51.528;4.442;2023-12-29T15:48:45;10.10;87.00
82243;DHT22;71844;51.528;4.442;2023-12-29T15:51:12;10.10;86.80
82243;DHT22;71844;51.528;4.442;2023-12-29T15:53:39;10.00;86.90
82243;DHT22;71844;51.528;4.442;2023-12-29T15:56:07;10.00;86.70
82243;DHT22;71844;51.528;4.442;2023-12-29T15:58:34;10.00;86.60
82243;DHT22;71844;51.528;4.442;2023-12-29T16:01:01;10.00;86.70
82243;DHT22;71844;51.528;4.442;2023-12-29T16:03:31;10.00;86.80
82243;DHT22;71844;51.528;4.442;2023-12-29T16:05:59;10.00;86.90
82243;DHT22;71844;51.528;4.442;2023-12-29T16:08:27;10.00;87.10
82243;DHT22;71844;51.528;4.442;2023-12-29T16:10:58;10.00;87.10
82243;DHT22;71844;51.528;4.442;2023-12-29T16:13:25;10.00;87.20
82243;DHT22;71844;51.528;4.442;2023-12-29T16:15:51;10.00;87.10
82243;DHT22;71844;51.528;4.442;2023-12-29T16:18:18;10.00;87.10
82243;DHT22;71844;51.528;4.442;2023-12-29T16:20:45;10.00;87.10
82243;DHT22;71844;51.528;4.442;2023-12-29T16:23:12;9.90;87.40
82243;DHT22;71844;51.528;4.442;2023-12-29T16:25:39;10.00;87.30
82243;DHT22;71844;51.528;4.442;2023-12-29T16:28:06;9.90;87.90
82243;DHT22;71844;51.528;4.442;2023-12-29T16:30:33;9.90;88.10
82243;DHT22;71844;51.528;4.442;2023-12-29T16:33:01;9.90;87.70
82243;DHT22;71844;51.528;4.442;2023-12-29T16:35:29;9.90;87.80
82243;DHT22;71844;51.528;4.442;2023-12-29T16:37:56;9.90;88.10